createdAt,value
2022-10-29T00:00:24.050Z,27.10
2022-10-29T00:02:51.251Z,20.63
2022-10-29T00:05:18.529Z,20.52
2022-10-29T00:07:45.716Z,28.33
2022-10-29T00:10:12.915Z,24.88
2022-10-29T00:12:40.207Z,33.50
2022-10-29T00:15:07.571Z,24.63
2022-10-29T00:17:35.127Z,22.73
2022-10-29T00:20:02.320Z,21.90
2022-10-29T00:22:29.515Z,27.83
2022-10-29T00:24:56.646Z,24.27
2022-10-29T00:27:23.915Z,19.75
2022-10-29T00:29:51.049Z,26.35
2022-10-29T00:32:18.306Z,28.85
2022-10-29T00:34:45.573Z,21.50
2022-10-29T00:37:12.719Z,29.42
2022-10-29T00:39:39.856Z,25.85
2022-10-29T00:42:07.005Z,27.17
2022-10-29T00:44:38.934Z,25.95
2022-10-29T00:47:14.935Z,25.73
2022-10-29T00:49:42.644Z,25.83
2022-10-29T00:52:10.923Z,24.35
2022-10-29T00:54:40.280Z,24.90
2022-10-29T00:57:12.397Z,19.55
2022-10-29T00:59:39.897Z,24.52
2022-10-29T01:02:07.158Z,26.13
2022-10-29T01:04:34.917Z,23.30
2022-10-29T01:07:02.396Z,17.67
2022-10-29T01:09:29.524Z,26.05
2022-10-29T01:12:05.711Z,25.35
2022-10-29T01:14:47.969Z,23.50
2022-10-29T01:17:21.320Z,25.10
2022-10-29T01:19:48.551Z,21.42
2022-10-29T01:22:20.927Z,21.45
2022-10-29T01:24:48.056Z,24.70
2022-10-29T01:27:33.713Z,21.98
2022-10-29T01:30:11.724Z,22.75
2022-10-29T01:32:59.026Z,22.42
2022-10-29T01:35:49.442Z,22.55
2022-10-29T01:38:22.760Z,22.88
2022-10-29T01:40:52.679Z,22.48
2022-10-29T01:43:28.513Z,19.55
2022-10-29T01:45:59.332Z,18.33
2022-10-29T01:48:34.530Z,19.08
2022-10-29T01:51:04.466Z,21.67
2022-10-29T01:53:32.290Z,21.38
2022-10-29T01:55:59.469Z,17.75
2022-10-29T01:58:26.692Z,24.15
2022-10-29T02:01:00.106Z,18.92
2022-10-29T02:03:46.238Z,17.33
2022-10-29T02:06:13.359Z,16.23
2022-10-29T02:08:46.529Z,21.58
2022-10-29T02:11:20.768Z,16.13
2022-10-29T02:13:51.300Z,15.18
2022-10-29T02:16:18.775Z,18.60
2022-10-29T02:18:47.195Z,17.98
2022-10-29T02:21:20.858Z,16.67
2022-10-29T02:23:48.408Z,24.02
2022-10-29T02:26:16.099Z,24.10
2022-10-29T02:28:43.515Z,20.02
2022-10-29T02:31:11.168Z,23.88
2022-10-29T02:33:38.316Z,26.70
2022-10-29T02:36:05.721Z,19.23
2022-10-29T02:38:32.879Z,17.55
2022-10-29T02:41:00.022Z,24.33
2022-10-29T02:43:27.143Z,26.25
2022-10-29T02:46:14.584Z,28.25
2022-10-29T02:48:41.794Z,24.13
2022-10-29T02:51:09.130Z,20.80
2022-10-29T02:53:36.368Z,22.88
2022-10-29T02:56:04.056Z,23.38
2022-10-29T02:58:31.207Z,19.20
2022-10-29T03:00:58.429Z,24.23
2022-10-29T03:03:25.663Z,26.40
2022-10-29T03:05:52.998Z,22.63
2022-10-29T03:08:20.442Z,22.30
2022-10-29T03:10:47.591Z,26.52
2022-10-29T03:13:14.904Z,26.85
2022-10-29T03:15:44.350Z,22.77
2022-10-29T03:18:11.792Z,19.63
2022-10-29T03:20:39.075Z,29.23
2022-10-29T03:23:06.258Z,24.17
2022-10-29T03:25:33.520Z,20.77
2022-10-29T03:28:00.642Z,24.63
2022-10-29T03:30:27.763Z,23.33
2022-10-29T03:32:55.299Z,20.63
2022-10-29T03:35:22.648Z,22.77
2022-10-29T03:37:51.073Z,19.95
2022-10-29T03:40:18.805Z,25.00
2022-10-29T03:42:46.222Z,36.22
2022-10-29T03:45:13.420Z,23.58
2022-10-29T03:47:40.599Z,20.95
2022-10-29T03:50:08.078Z,22.63
2022-10-29T03:52:35.215Z,21.67
2022-10-29T03:55:02.551Z,25.27
2022-10-29T03:57:29.724Z,20.95
2022-10-29T03:59:56.924Z,33.45
2022-10-29T04:02:24.462Z,28.02
2022-10-29T04:04:51.753Z,23.10
2022-10-29T04:07:18.995Z,20.23
2022-10-29T04:09:46.130Z,20.45
2022-10-29T04:12:13.308Z,20.20
2022-10-29T04:14:45.380Z,20.30
2022-10-29T04:17:13.879Z,23.88
2022-10-29T04:19:41.306Z,27.30
2022-10-29T04:28:41.232Z,25.27
2022-10-29T04:30:30.405Z,22.85
2022-10-29T04:33:01.060Z,30.02
2022-10-29T04:35:28.814Z,23.13
2022-10-29T04:37:56.326Z,31.25
2022-10-29T04:40:24.535Z,32.25
2022-10-29T04:42:51.939Z,25.15
2022-10-29T04:45:19.257Z,26.88
2022-10-29T04:47:46.768Z,27.83
2022-10-29T04:50:13.909Z,31.00
2022-10-29T04:52:41.116Z,24.98
2022-10-29T04:55:08.471Z,27.73
2022-10-29T04:57:35.601Z,40.22
2022-10-29T05:00:02.915Z,38.30
2022-10-29T05:02:30.055Z,35.65
2022-10-29T05:04:57.241Z,36.00
2022-10-29T05:07:24.439Z,38.25
2022-10-29T05:09:51.707Z,39.70
2022-10-29T05:12:18.840Z,36.83
2022-10-29T05:14:46.023Z,38.10
2022-10-29T05:17:13.215Z,40.92
2022-10-29T05:19:40.388Z,39.00
2022-10-29T05:22:07.577Z,35.50
2022-10-29T05:24:34.760Z,33.42
2022-10-29T05:27:02.261Z,32.75
2022-10-29T05:29:29.550Z,37.58
2022-10-29T05:31:56.677Z,39.20
2022-10-29T05:34:23.842Z,45.97
2022-10-29T05:36:51.211Z,44.78
2022-10-29T05:39:18.453Z,44.40
2022-10-29T05:41:46.603Z,53.22
2022-10-29T05:44:13.943Z,49.50
2022-10-29T05:46:41.096Z,48.20
2022-10-29T05:49:08.240Z,69.43
2022-10-29T05:51:35.380Z,57.65
2022-10-29T05:54:02.537Z,58.28
2022-10-29T05:56:29.728Z,65.95
2022-10-29T05:58:56.865Z,51.08
2022-10-29T06:01:24.041Z,71.90
2022-10-29T06:03:54.171Z,69.53
2022-10-29T06:06:21.756Z,62.67
2022-10-29T06:08:49.208Z,66.35
2022-10-29T06:11:16.363Z,77.22
2022-10-29T06:13:43.617Z,76.47
2022-10-29T06:16:10.824Z,81.68
2022-10-29T06:18:37.971Z,76.57
2022-10-29T06:21:05.252Z,78.20
2022-10-29T06:23:32.473Z,73.40
2022-10-29T06:26:01.360Z,76.82
2022-10-29T06:28:34.501Z,67.43
2022-10-29T06:31:02.216Z,68.70
2022-10-29T06:33:29.383Z,94.18
2022-10-29T06:35:59.911Z,80.50
2022-10-29T06:38:27.109Z,71.50
2022-10-29T06:40:54.370Z,76.47
2022-10-29T06:43:21.700Z,80.00
2022-10-29T06:45:51.992Z,78.70
2022-10-29T06:48:22.030Z,74.75
2022-10-29T06:50:50.198Z,85.53
2022-10-29T06:53:19.054Z,69.70
2022-10-29T06:55:46.220Z,71.35
2022-10-29T06:58:14.190Z,73.88
2022-10-29T07:00:42.038Z,75.22
2022-10-29T07:03:15.587Z,67.85
2022-10-29T07:05:42.758Z,62.70
2022-10-29T07:08:10.112Z,72.25
2022-10-29T07:10:37.368Z,67.18
2022-10-29T07:13:04.830Z,69.28
2022-10-29T07:15:32.211Z,68.20
2022-10-29T07:18:03.375Z,82.03
2022-10-29T07:20:31.968Z,66.43
2022-10-29T07:23:00.436Z,71.28
2022-10-29T07:25:28.191Z,74.40
2022-10-29T07:27:56.209Z,66.55
2022-10-29T07:30:23.616Z,61.47
2022-10-29T07:32:50.799Z,61.60
2022-10-29T07:35:17.943Z,61.78
2022-10-29T07:37:45.087Z,61.67
2022-10-29T07:40:12.553Z,62.80
2022-10-29T07:42:39.674Z,63.45
2022-10-29T07:45:07.117Z,60.55
2022-10-29T07:47:34.395Z,68.07
2022-10-29T07:50:01.555Z,63.80
2022-10-29T07:52:28.683Z,66.95
2022-10-29T07:54:55.860Z,69.53
2022-10-29T07:57:22.988Z,72.97
2022-10-29T07:59:51.955Z,70.45
2022-10-29T08:02:19.198Z,67.10
2022-10-29T08:04:46.378Z,53.60
2022-10-29T08:07:13.522Z,62.25
2022-10-29T08:09:40.799Z,57.90
2022-10-29T08:12:11.531Z,59.05
2022-10-29T08:14:38.719Z,63.15
2022-10-29T08:17:05.868Z,59.85
2022-10-29T08:19:33.336Z,54.17
2022-10-29T08:22:00.454Z,60.58
2022-10-29T08:24:27.620Z,65.28
2022-10-29T08:26:54.747Z,49.45
2022-10-29T08:29:21.939Z,59.72
2022-10-29T08:31:49.087Z,46.08
2022-10-29T08:34:16.449Z,45.67
2022-10-29T08:36:43.657Z,42.63
2022-10-29T08:39:10.806Z,41.70
2022-10-29T08:41:40.962Z,47.63
2022-10-29T08:44:26.789Z,51.03
2022-10-29T08:49:22.628Z,58.53
2022-10-29T08:52:19.898Z,38.55
2022-10-29T08:54:50.445Z,41.47
2022-10-29T08:57:20.830Z,39.05
2022-10-29T09:00:20.602Z,45.92
2022-10-29T09:02:47.952Z,34.65
2022-10-29T09:05:16.161Z,35.95
2022-10-29T09:07:43.338Z,47.22
2022-10-29T09:10:10.535Z,36.90
2022-10-29T09:12:53.217Z,34.10
2022-10-29T09:15:28.203Z,36.83
2022-10-29T09:18:14.296Z,50.60
2022-10-29T09:20:53.297Z,31.30
2022-10-29T09:23:36.987Z,38.38
2022-10-29T09:26:05.125Z,39.55
2022-10-29T09:28:47.615Z,36.67
2022-10-29T09:31:17.703Z,38.10
2022-10-29T09:33:46.594Z,45.60
2022-10-29T09:36:18.329Z,38.45
2022-10-29T09:39:04.804Z,30.75
2022-10-29T09:41:33.083Z,35.50
2022-10-29T09:44:03.424Z,40.13
2022-10-29T09:46:30.702Z,39.80
2022-10-29T09:49:04.204Z,35.08
2022-10-29T09:51:40.562Z,37.25
2022-10-29T09:54:07.994Z,34.58
2022-10-29T09:56:35.139Z,40.97
2022-10-29T09:59:12.745Z,29.23
2022-10-29T10:01:40.603Z,35.42
2022-10-29T10:04:14.302Z,35.00
2022-10-29T10:07:00.411Z,33.80
2022-10-29T10:09:27.876Z,31.48
2022-10-29T10:11:59.056Z,34.30
2022-10-29T10:14:27.711Z,33.25
2022-10-29T10:16:58.957Z,28.85
2022-10-29T10:19:35.104Z,28.35
2022-10-29T10:22:03.660Z,32.50
2022-10-29T10:24:30.789Z,30.00
2022-10-29T10:26:57.927Z,39.65
2022-10-29T10:29:25.903Z,32.28
2022-10-29T10:31:56.087Z,33.63
2022-10-29T10:34:27.188Z,29.17
2022-10-29T10:37:15.331Z,35.35
2022-10-29T10:39:43.906Z,28.92
2022-10-29T10:42:17.112Z,29.35
2022-10-29T10:44:47.915Z,27.80
2022-10-29T10:47:17.432Z,27.98
2022-10-29T10:49:44.673Z,29.60
2022-10-29T10:52:31.220Z,29.80
2022-10-29T10:55:06.578Z,28.48
2022-10-29T11:00:16.119Z,26.42
2022-10-29T11:02:54.061Z,25.35
2022-10-29T11:05:22.896Z,26.45
2022-10-29T11:07:58.390Z,23.00
2022-10-29T11:10:34.192Z,29.23
2022-10-29T11:13:02.507Z,18.95
2022-10-29T11:15:38.748Z,29.52
2022-10-29T11:18:12.056Z,19.90
2022-10-29T11:20:40.319Z,20.00
2022-10-29T11:23:26.290Z,21.30
2022-10-29T11:26:13.788Z,17.80
2022-10-29T11:28:48.325Z,21.95
2022-10-29T11:31:15.700Z,27.13
2022-10-29T11:33:49.585Z,22.20
2022-10-29T11:36:21.888Z,16.10
2022-10-29T11:38:51.462Z,21.23
2022-10-29T11:41:34.906Z,20.45
2022-10-29T11:44:02.079Z,16.38
2022-10-29T11:46:40.199Z,15.70
2022-10-29T11:49:07.359Z,18.80
2022-10-29T11:51:41.857Z,19.45
2022-10-29T11:54:28.973Z,20.58
2022-10-29T11:57:01.333Z,17.25
2022-10-29T11:59:38.875Z,23.52
2022-10-29T12:02:24.620Z,20.65
2022-10-29T12:04:59.917Z,31.75
2022-10-29T12:07:32.996Z,24.48
2022-10-29T12:10:19.034Z,20.75
2022-10-29T12:13:03.824Z,26.65
2022-10-29T12:15:39.647Z,22.27
2022-10-29T12:18:18.914Z,21.58
2022-10-29T12:20:51.834Z,21.60
2022-10-29T12:23:37.556Z,19.15
2022-10-29T12:26:07.723Z,18.92
2022-10-29T12:28:39.669Z,23.38
2022-10-29T12:31:06.791Z,25.30
2022-10-29T12:33:43.038Z,27.35
2022-10-29T12:36:33.336Z,21.05
2022-10-29T12:39:00.663Z,18.50
2022-10-29T12:41:32.329Z,25.42
2022-10-29T12:44:03.852Z,23.15
2022-10-29T12:46:39.042Z,23.65
2022-10-29T12:51:33.222Z,19.33
2022-10-29T12:54:00.348Z,24.40
2022-10-29T12:56:28.174Z,17.63
2022-10-29T12:58:59.730Z,19.63
2022-10-29T13:01:50.008Z,15.82
2022-10-29T13:04:30.857Z,17.13
2022-10-29T13:07:02.958Z,22.75
2022-10-29T13:09:35.901Z,22.05
2022-10-29T13:12:10.065Z,18.92
2022-10-29T13:14:50.777Z,25.35
2022-10-29T13:17:24.161Z,25.30
2022-10-29T13:19:59.956Z,19.33
2022-10-29T13:22:30.168Z,24.52
2022-10-29T13:25:15.728Z,25.48
2022-10-29T13:27:42.901Z,29.00
2022-10-29T13:30:22.375Z,24.45
2022-10-29T13:32:49.524Z,26.35
2022-10-29T13:35:16.670Z,20.55
2022-10-29T13:37:46.790Z,18.52
2022-10-29T13:40:23.071Z,24.92
2022-10-29T13:42:56.415Z,32.42
2022-10-29T13:45:23.868Z,22.58
2022-10-29T13:47:51.176Z,26.92
2022-10-29T13:50:18.899Z,23.90
2022-10-29T13:52:47.262Z,23.98
2022-10-29T13:55:18.206Z,26.38
2022-10-29T13:57:45.338Z,23.00
2022-10-29T14:00:12.459Z,27.73
2022-10-29T14:02:54.884Z,33.70
2022-10-29T14:05:43.648Z,28.60
2022-10-29T14:08:19.506Z,27.52
2022-10-29T14:10:48.268Z,34.50
2022-10-29T14:13:18.023Z,25.63
2022-10-29T14:16:02.421Z,29.63
2022-10-29T14:18:31.554Z,30.80
2022-10-29T14:20:59.715Z,24.20
2022-10-29T14:23:27.534Z,30.00
2022-10-29T14:25:55.872Z,27.92
2022-10-29T14:28:26.807Z,37.22
2022-10-29T14:31:12.576Z,26.23
2022-10-29T14:36:12.014Z,25.33
2022-10-29T14:38:59.431Z,25.65
2022-10-29T14:41:27.123Z,19.35
2022-10-29T14:44:06.436Z,21.73
2022-10-29T14:46:34.999Z,27.67
2022-10-29T14:49:14.471Z,26.73
2022-10-29T14:51:48.180Z,27.08
2022-10-29T14:54:19.885Z,30.95
2022-10-29T14:56:49.314Z,25.13
2022-10-29T14:59:20.073Z,35.63
2022-10-29T15:01:49.503Z,27.58
2022-10-29T15:04:21.075Z,31.17
2022-10-29T15:06:48.517Z,21.35
2022-10-29T15:09:20.498Z,28.13
2022-10-29T15:11:59.953Z,31.08
2022-10-29T15:14:47.223Z,30.30
2022-10-29T15:17:25.298Z,33.10
2022-10-29T15:19:54.558Z,28.38
2022-10-29T15:22:27.852Z,27.95
2022-10-29T15:24:55.204Z,23.15
2022-10-29T15:27:23.136Z,27.90
2022-10-29T15:29:50.288Z,31.10
2022-10-29T15:32:18.427Z,30.95
2022-10-29T15:34:50.222Z,32.22
2022-10-29T15:37:20.606Z,35.83
2022-10-29T15:39:56.689Z,37.17
2022-10-29T15:42:25.791Z,45.13
2022-10-29T15:45:08.395Z,43.78
2022-10-29T15:47:35.653Z,31.20
2022-10-29T15:50:02.983Z,39.67
2022-10-29T15:52:59.340Z,25.17
2022-10-29T15:55:28.541Z,26.10
2022-10-29T15:58:06.542Z,36.78
2022-10-29T16:00:33.922Z,26.75
2022-10-29T16:03:07.421Z,38.03
2022-10-29T16:05:34.643Z,52.88
2022-10-29T16:08:03.706Z,42.88
2022-10-29T16:10:31.039Z,46.90
2022-10-29T16:12:58.946Z,48.15
2022-10-29T16:17:54.726Z,38.92
2022-10-29T16:20:22.072Z,36.67
2022-10-29T16:22:49.895Z,29.60
2022-10-29T16:25:19.841Z,27.88
2022-10-29T16:27:46.971Z,29.77
2022-10-29T16:30:14.229Z,24.17
2022-10-29T16:32:41.491Z,37.35
2022-10-29T16:35:22.123Z,28.83
2022-10-29T16:37:49.809Z,30.13
2022-10-29T16:40:17.544Z,26.75
2022-10-29T16:42:45.165Z,37.90
2022-10-29T16:45:23.104Z,31.42
2022-10-29T16:47:53.427Z,31.95
2022-10-29T16:50:21.974Z,42.25
2022-10-29T16:52:49.362Z,34.80
2022-10-29T16:55:16.478Z,32.47
2022-10-29T16:57:43.629Z,37.63
2022-10-29T17:00:11.167Z,36.42
2022-10-29T17:02:40.592Z,31.95
2022-10-29T17:05:07.982Z,45.00
2022-10-29T17:07:35.190Z,31.02
2022-10-29T17:10:02.583Z,40.65
2022-10-29T17:12:29.746Z,38.75
2022-10-29T17:14:56.882Z,36.85
2022-10-29T17:17:24.022Z,32.78
2022-10-29T17:19:51.220Z,34.70
2022-10-29T17:22:18.384Z,33.72
2022-10-29T17:24:45.774Z,31.95
2022-10-29T17:27:13.451Z,34.60
2022-10-29T17:29:40.649Z,34.15
2022-10-29T17:32:08.532Z,32.85
2022-10-29T17:34:35.721Z,40.78
2022-10-29T17:37:02.905Z,34.40
2022-10-29T17:39:30.244Z,40.03
2022-10-29T17:41:57.457Z,34.20
2022-10-29T17:44:26.385Z,30.33
2022-10-29T17:46:54.060Z,33.40
2022-10-29T17:49:21.994Z,37.80
2022-10-29T17:51:49.179Z,34.22
2022-10-29T17:54:16.857Z,29.60
2022-10-29T17:56:44.015Z,39.75
2022-10-29T17:59:11.155Z,27.88
2022-10-29T18:01:38.431Z,30.58
2022-10-29T18:04:06.525Z,35.80
2022-10-29T18:06:33.783Z,38.00
2022-10-29T18:09:01.758Z,32.13
2022-10-29T18:11:29.040Z,32.45
2022-10-29T18:13:56.906Z,32.58
2022-10-29T18:16:25.854Z,32.90
2022-10-29T18:19:01.407Z,30.75
2022-10-29T18:21:29.646Z,36.33
2022-10-29T18:23:56.894Z,32.13
2022-10-29T18:26:26.858Z,34.60
2022-10-29T18:28:55.065Z,33.20
2022-10-29T18:31:24.331Z,31.40
2022-10-29T18:33:51.579Z,37.40
2022-10-29T18:36:18.841Z,38.20
2022-10-29T18:38:50.711Z,27.70
2022-10-29T18:41:17.925Z,37.90
2022-10-29T18:43:45.186Z,42.00
2022-10-29T18:46:12.602Z,34.88
2022-10-29T18:48:40.742Z,34.95
2022-10-29T18:51:09.268Z,40.22
2022-10-29T18:53:37.007Z,35.60
2022-10-29T18:56:05.741Z,36.45
2022-10-29T18:58:33.512Z,44.92
2022-10-29T19:01:05.398Z,35.83
2022-10-29T19:03:32.578Z,40.90
2022-10-29T19:06:07.325Z,38.55
2022-10-29T19:08:35.253Z,40.58
2022-10-29T19:11:03.771Z,34.42
2022-10-29T19:13:31.252Z,41.75
2022-10-29T19:16:02.440Z,38.42
2022-10-29T19:18:30.459Z,37.47
2022-10-29T19:21:17.695Z,32.10
2022-10-29T19:23:46.321Z,41.35
2022-10-29T19:26:14.422Z,33.10
2022-10-29T19:28:42.057Z,32.67
2022-10-29T19:31:19.652Z,33.13
2022-10-29T19:33:51.090Z,45.58
2022-10-29T19:36:18.529Z,33.20
2022-10-29T19:38:45.805Z,37.03
2022-10-29T19:41:13.192Z,35.85
2022-10-29T19:43:40.684Z,36.67
2022-10-29T19:46:08.882Z,36.50
2022-10-29T19:48:36.307Z,40.65
2022-10-29T19:51:03.538Z,46.65
2022-10-29T19:53:30.778Z,41.95
2022-10-29T19:55:58.211Z,35.47
2022-10-29T19:58:26.982Z,53.65
2022-10-29T20:00:54.685Z,42.53
2022-10-29T20:03:21.933Z,37.80
2022-10-29T20:05:50.164Z,57.55
2022-10-29T20:08:17.300Z,43.75
2022-10-29T20:10:44.435Z,48.67
2022-10-29T20:13:11.634Z,45.78
2022-10-29T20:15:40.114Z,38.58
2022-10-29T20:18:07.350Z,51.38
2022-10-29T20:20:34.806Z,45.47
2022-10-29T20:23:02.124Z,40.72
2022-10-29T20:25:29.543Z,47.70
2022-10-29T20:27:58.032Z,40.88
2022-10-29T20:30:25.259Z,41.78
2022-10-29T20:32:52.390Z,39.25
2022-10-29T20:35:19.582Z,41.15
2022-10-29T20:37:46.722Z,40.30
2022-10-29T20:40:14.052Z,45.50
2022-10-29T20:42:41.324Z,37.20
2022-10-29T20:45:08.632Z,36.00
2022-10-29T20:47:35.755Z,40.08
2022-10-29T20:50:02.942Z,37.28
2022-10-29T20:52:30.428Z,37.13
2022-10-29T20:54:57.582Z,36.35
2022-10-29T20:57:24.730Z,41.95
2022-10-29T20:59:52.178Z,41.78
2022-10-29T21:02:19.514Z,38.83
2022-10-29T21:04:47.091Z,44.25
2022-10-29T21:07:14.219Z,37.60
2022-10-29T21:09:41.363Z,35.15
2022-10-29T21:12:08.611Z,35.92
2022-10-29T21:14:35.756Z,37.67
2022-10-29T21:17:02.896Z,44.30
2022-10-29T21:19:30.628Z,47.95
2022-10-29T21:21:57.747Z,31.13
2022-10-29T21:24:24.885Z,31.60
2022-10-29T21:26:52.039Z,39.58
2022-10-29T21:29:19.246Z,36.00
2022-10-29T21:31:49.536Z,39.63
2022-10-29T21:34:16.802Z,31.58
2022-10-29T21:36:44.052Z,40.13
2022-10-29T21:39:11.248Z,35.22
2022-10-29T21:41:38.456Z,37.17
2022-10-29T21:44:05.742Z,33.83
2022-10-29T21:46:32.902Z,37.10
2022-10-29T21:49:00.149Z,43.95
2022-10-29T21:51:27.299Z,41.20
2022-10-29T21:53:55.101Z,45.20
2022-10-29T21:56:22.356Z,53.13
2022-10-29T21:58:52.318Z,43.75
2022-10-29T22:01:19.948Z,50.35
2022-10-29T22:03:47.957Z,55.90
2022-10-29T22:06:15.134Z,58.85
2022-10-29T22:08:42.375Z,62.63
2022-10-29T22:11:10.191Z,60.45
2022-10-29T22:13:37.581Z,62.05
2022-10-29T22:16:05.722Z,57.65
2022-10-29T22:18:33.393Z,56.63
2022-10-29T22:21:04.709Z,57.35
2022-10-29T22:23:31.839Z,54.75
2022-10-29T22:25:59.017Z,46.45
2022-10-29T22:28:26.239Z,51.15
2022-10-29T22:31:00.297Z,49.63
2022-10-29T22:33:27.980Z,51.45
2022-10-29T22:35:55.351Z,45.88
2022-10-29T22:38:22.680Z,51.22
2022-10-29T22:40:50.050Z,43.85
2022-10-29T22:43:17.217Z,49.85
2022-10-29T22:45:45.933Z,47.20
2022-10-29T22:48:13.106Z,47.38
2022-10-29T22:50:40.313Z,46.22
2022-10-29T22:53:07.614Z,45.40
2022-10-29T22:55:34.777Z,38.17
2022-10-29T22:58:01.923Z,40.38
2022-10-29T23:00:29.126Z,44.67
2022-10-29T23:02:56.704Z,34.83
2022-10-29T23:05:24.218Z,41.33
2022-10-29T23:07:51.372Z,38.88
2022-10-29T23:10:18.643Z,47.28
2022-10-29T23:12:45.986Z,37.13
2022-10-29T23:15:13.907Z,38.65
2022-10-29T23:17:41.089Z,45.17
2022-10-29T23:20:08.431Z,39.13
2022-10-29T23:22:35.587Z,36.38
2022-10-29T23:25:02.710Z,34.88
2022-10-29T23:27:29.904Z,39.70
2022-10-29T23:29:57.036Z,35.58
2022-10-29T23:32:24.235Z,40.08
2022-10-29T23:34:51.438Z,31.83
2022-10-29T23:37:18.871Z,32.78
2022-10-29T23:39:46.001Z,27.95
2022-10-29T23:44:54.252Z,28.00
2022-10-29T23:47:21.928Z,33.83
2022-10-29T23:49:49.460Z,32.58
2022-10-29T23:52:16.702Z,30.88
2022-10-29T23:54:43.818Z,30.60
2022-10-29T23:57:10.944Z,33.35
2022-10-29T23:59:38.138Z,32.80
